Time;durP1;ratioP1;P1;durP2;ratioP2;P2;SDS_P1;SDS_P2;PMS_P1;PMS_P2;Temp;Humidity;BMP_temperature;BMP_pressure;BME280_temperature;BME280_humidity;BME280_pressure;Samples;Min_cycle;Max_cycle;Signal;HPM_P1;HPM_P2
2022/05/11 00:01:12;;;;;;;9.80;4.55;;;14.60;99.90;;;;;;5111654;28;20043;-64
2022/05/11 00:03:37;;;;;;;9.32;4.32;;;14.60;99.90;;;;;;5109194;28;20513;-64
2022/05/11 00:06:03;;;;;;;11.10;4.22;;;14.60;99.90;;;;;;5111613;28;20114;-64
2022/05/11 00:08:28;;;;;;;8.73;4.40;;;14.50;99.90;;;;;;5110579;28;20042;-65
2022/05/11 00:10:54;;;;;;;7.97;4.45;;;14.60;99.90;;;;;;5110272;28;20110;-63
2022/05/11 00:13:20;;;;;;;5.28;4.20;;;14.60;99.90;;;;;;5109603;28;20351;-64
2022/05/11 00:15:45;;;;;;;9.82;4.15;;;14.60;99.90;;;;;;5109639;28;20047;-64
2022/05/11 00:18:11;;;;;;;5.32;4.25;;;14.50;99.90;;;;;;5109942;28;20039;-65
2022/05/11 00:20:37;;;;;;;8.35;4.22;;;14.60;99.90;;;;;;5110477;28;20093;-63
2022/05/11 00:23:03;;;;;;;11.98;4.45;;;14.50;99.90;;;;;;5110631;28;20089;-65
2022/05/11 00:25:29;;;;;;;5.85;4.38;;;14.60;99.90;;;;;;5110704;28;20464;-64
2022/05/11 00:27:57;;;;;;;8.60;3.88;;;14.50;99.90;;;;;;5110047;28;20043;-65
2022/05/11 00:30:24;;;;;;;11.13;4.28;;;14.50;99.90;;;;;;5110899;28;20114;-64
2022/05/11 00:32:56;;;;;;;10.90;4.60;;;14.60;99.90;;;;;;5110305;28;20043;-65
2022/05/11 00:35:22;;;;;;;5.40;3.92;;;14.50;99.90;;;;;;5110301;28;20039;-64
2022/05/11 00:37:48;;;;;;;10.30;3.83;;;14.50;99.90;;;;;;5110760;28;20047;-64
2022/05/11 00:40:15;;;;;;;7.20;4.20;;;14.50;99.90;;;;;;5109602;28;20043;-63
2022/05/11 00:42:40;;;;;;;10.13;4.00;;;14.60;99.90;;;;;;5111933;28;20036;-64
2022/05/11 00:45:07;;;;;;;7.38;4.20;;;14.60;99.90;;;;;;5115313;28;20193;-65
2022/05/11 00:47:36;;;;;;;7.85;4.00;;;14.70;99.90;;;;;;5115108;28;20499;-64
2022/05/11 00:50:34;;;;;;;6.05;3.85;;;14.70;99.90;;;;;;5115051;27;20031;-64
2022/05/11 00:53:11;;;;;;;8.38;4.30;;;14.70;99.90;;;;;;5111169;28;20455;-65
2022/05/11 00:55:43;;;;;;;6.95;4.25;;;14.70;99.90;;;;;;5115375;28;20043;-64
2022/05/11 00:58:13;;;;;;;10.30;3.75;;;14.70;99.90;;;;;;5115190;28;20050;-64
2022/05/11 01:00:39;;;;;;;10.13;4.20;;;14.70;99.90;;;;;;5113406;28;20048;-64
2022/05/11 01:03:17;;;;;;;4.93;3.75;;;14.80;99.90;;;;;;5114033;28;20062;-64
2022/05/11 01:05:43;;;;;;;9.43;3.55;;;14.80;99.90;;;;;;5115295;28;20075;-64
2022/05/11 01:08:10;;;;;;;8.98;3.70;;;14.80;99.90;;;;;;5114368;28;20042;-64
2022/05/11 01:10:35;;;;;;;10.40;3.70;;;14.80;99.90;;;;;;5113058;28;20031;-64
2022/05/11 01:13:05;;;;;;;6.53;3.60;;;14.80;99.90;;;;;;5114785;28;20115;-64
2022/05/11 01:15:32;;;;;;;6.15;3.65;;;14.80;99.90;;;;;;5114711;28;20043;-65
2022/05/11 01:18:00;;;;;;;11.70;3.53;;;14.80;99.90;;;;;;5114739;28;20069;-63
2022/05/11 01:20:29;;;;;;;12.20;3.55;;;14.80;99.90;;;;;;5114575;28;20434;-63
2022/05/11 01:23:33;;;;;;;7.65;3.88;;;14.80;99.90;;;;;;5114574;28;20126;-64
2022/05/11 01:25:59;;;;;;;6.10;3.65;;;14.80;99.90;;;;;;5114621;28;20041;-64
2022/05/11 01:28:25;;;;;;;6.28;3.40;;;14.90;99.90;;;;;;5114321;28;20035;-63
2022/05/11 01:30:59;;;;;;;6.30;3.67;;;14.90;99.90;;;;;;5114540;28;20115;-64
2022/05/11 01:33:25;;;;;;;5.57;3.30;;;14.80;99.90;;;;;;5114651;28;20373;-63
2022/05/11 01:36:15;;;;;;;11.82;3.90;;;14.80;99.90;;;;;;5114317;28;20044;-65
2022/05/11 01:38:43;;;;;;;4.25;3.40;;;14.80;99.90;;;;;;5113524;28;20047;-66
2022/05/11 01:41:14;;;;;;;7.15;3.85;;;14.90;99.90;;;;;;5114643;28;20096;-64
2022/05/11 01:43:40;;;;;;;8.00;4.20;;;14.90;99.90;;;;;;5113323;28;20055;-65
2022/05/11 01:46:07;;;;;;;9.35;3.65;;;14.90;99.90;;;;;;5114255;28;20427;-64
2022/05/11 01:48:34;;;;;;;12.48;3.55;;;14.90;99.90;;;;;;5113921;28;20445;-64
2022/05/11 01:50:59;;;;;;;7.45;4.43;;;14.90;99.90;;;;;;5114266;28;20043;-65
2022/05/11 01:53:25;;;;;;;6.40;3.60;;;14.90;99.90;;;;;;5113288;28;20039;-65
2022/05/11 01:55:51;;;;;;;7.88;4.07;;;14.90;99.90;;;;;;5114069;28;20070;-65
2022/05/11 01:58:18;;;;;;;6.30;4.47;;;14.90;99.90;;;;;;5113796;28;20443;-64
2022/05/11 02:00:45;;;;;;;6.55;3.65;;;14.90;99.90;;;;;;5113569;28;20504;-64
2022/05/11 02:03:11;;;;;;;7.03;4.38;;;15.00;99.90;;;;;;5113741;27;20061;-64
2022/05/11 02:08:21;;;;;;;9.60;4.53;;;14.90;99.90;;;;;;5113314;28;20515;-64
2022/05/11 02:10:47;;;;;;;7.90;4.38;;;14.80;99.90;;;;;;5113757;28;20399;-63
2022/05/11 02:13:13;;;;;;;8.30;3.90;;;14.80;99.90;;;;;;5113632;28;20050;-65
2022/05/11 02:15:40;;;;;;;7.03;3.70;;;14.80;99.90;;;;;;5113672;28;20039;-64
2022/05/11 02:18:06;;;;;;;6.63;3.72;;;14.90;99.90;;;;;;5112918;28;20118;-64
2022/05/11 02:20:32;;;;;;;8.85;4.20;;;14.90;99.90;;;;;;5112954;28;20085;-64
2022/05/11 02:22:58;;;;;;;7.47;3.67;;;14.80;99.90;;;;;;5113493;27;20694;-64
2022/05/11 02:25:23;;;;;;;8.27;3.38;;;14.90;99.90;;;;;;5113718;28;20036;-64
2022/05/11 02:27:51;;;;;;;10.77;4.10;;;14.80;99.90;;;;;;5111480;28;20047;-64
2022/05/11 02:30:21;;;;;;;8.35;3.75;;;14.80;99.90;;;;;;5112407;28;20297;-65
2022/05/11 02:32:46;;;;;;;6.13;3.72;;;14.80;99.90;;;;;;5112515;28;20043;-64
2022/05/11 02:35:12;;;;;;;10.80;3.80;;;14.80;99.90;;;;;;5113385;28;20571;-64
2022/05/11 02:37:43;;;;;;;6.95;3.45;;;14.90;99.90;;;;;;5113288;28;20070;-64
2022/05/11 02:40:10;;;;;;;6.03;3.50;;;14.90;99.90;;;;;;5111594;28;20126;-65
2022/05/11 02:42:35;;;;;;;6.70;3.38;;;14.90;99.90;;;;;;5113093;28;20073;-65
2022/05/11 02:45:01;;;;;;;7.50;3.97;;;14.90;99.90;;;;;;5112739;28;20500;-64
2022/05/11 02:47:27;;;;;;;6.43;3.90;;;14.80;99.90;;;;;;5113188;28;20399;-64
2022/05/11 02:49:52;;;;;;;9.90;3.63;;;14.80;99.90;;;;;;5112775;28;20492;-64
2022/05/11 02:52:18;;;;;;;8.38;3.95;;;14.80;99.90;;;;;;5113149;28;20535;-64
2022/05/11 02:54:46;;;;;;;5.00;3.60;;;14.80;99.90;;;;;;5112815;28;20369;-64
2022/05/11 02:57:13;;;;;;;7.35;3.90;;;14.80;99.90;;;;;;5112743;28;20043;-65
2022/05/11 02:59:38;;;;;;;8.07;3.75;;;14.80;99.90;;;;;;5112303;28;20062;-64
2022/05/11 03:02:04;;;;;;;6.20;3.40;;;14.80;99.90;;;;;;5112558;28;20503;-64
2022/05/11 03:04:29;;;;;;;6.55;3.58;;;14.90;99.90;;;;;;5112385;28;20050;-65
2022/05/11 03:06:55;;;;;;;8.57;3.67;;;14.80;99.90;;;;;;5112262;28;20032;-64
2022/05/11 03:09:20;;;;;;;5.40;4.25;;;14.80;99.90;;;;;;5109988;28;20078;-65
2022/05/11 03:11:46;;;;;;;10.02;4.03;;;14.80;99.90;;;;;;5112660;28;20107;-64
2022/05/11 03:14:13;;;;;;;9.50;3.65;;;14.80;99.90;;;;;;5112582;28;20093;-65
2022/05/11 03:16:39;;;;;;;6.75;3.78;;;14.80;99.90;;;;;;5111971;28;20484;-65
2022/05/11 03:19:05;;;;;;;6.13;3.53;;;14.80;99.90;;;;;;5110655;28;20044;-64
2022/05/11 03:21:31;;;;;;;7.32;4.07;;;14.80;99.90;;;;;;5112451;28;20399;-65
2022/05/11 03:23:57;;;;;;;7.85;3.45;;;14.80;99.90;;;;;;5112179;28;20058;-64
2022/05/11 03:26:23;;;;;;;8.73;4.07;;;14.80;99.90;;;;;;5112489;28;20036;-64
2022/05/11 03:28:49;;;;;;;7.18;3.90;;;14.90;99.90;;;;;;5111737;28;20032;-64
2022/05/11 03:31:15;;;;;;;8.73;3.90;;;14.90;99.90;;;;;;5112370;28;20035;-64
2022/05/11 03:36:25;;;;;;;6.63;3.45;;;14.80;99.90;;;;;;5112108;28;20039;-64
2022/05/11 03:38:51;;;;;;;7.18;3.90;;;14.80;99.90;;;;;;5111108;28;20044;-64
2022/05/11 03:41:17;;;;;;;7.43;3.60;;;14.70;99.90;;;;;;5111071;28;20054;-64
2022/05/11 03:43:44;;;;;;;7.47;4.05;;;14.70;99.90;;;;;;5111314;28;20036;-65
2022/05/11 03:46:10;;;;;;;8.40;3.83;;;14.80;99.90;;;;;;5112054;28;20039;-64
2022/05/11 03:48:37;;;;;;;6.85;3.55;;;14.70;99.90;;;;;;5111391;28;20047;-64
2022/05/11 03:51:04;;;;;;;6.50;3.80;;;14.70;99.90;;;;;;5111700;28;20036;-64
2022/05/11 03:53:31;;;;;;;6.50;3.53;;;14.70;99.90;;;;;;5111080;28;20438;-64
2022/05/11 03:55:56;;;;;;;6.90;3.80;;;14.70;99.90;;;;;;5111843;27;20133;-65
2022/05/11 03:58:22;;;;;;;9.75;3.80;;;14.70;99.90;;;;;;5111121;28;20461;-64
2022/05/11 04:00:47;;;;;;;12.40;4.53;;;14.70;99.90;;;;;;5108099;28;20067;-64
2022/05/11 04:03:13;;;;;;;11.48;3.90;;;14.70;99.90;;;;;;5108631;28;20497;-64
2022/05/11 04:05:39;;;;;;;9.48;4.20;;;14.70;99.90;;;;;;5108042;28;20043;-64
2022/05/11 04:08:05;;;;;;;10.00;3.90;;;14.70;99.90;;;;;;5110763;28;20035;-63
2022/05/11 04:10:30;;;;;;;5.30;3.40;;;14.70;99.90;;;;;;5110466;28;20112;-63
2022/05/11 04:12:56;;;;;;;7.20;3.78;;;14.70;99.90;;;;;;5110348;28;20039;-63
2022/05/11 04:15:21;;;;;;;8.02;4.07;;;14.70;99.90;;;;;;5111331;28;20407;-64
2022/05/11 04:17:47;;;;;;;10.23;4.00;;;14.70;99.90;;;;;;5110312;28;20047;-64
2022/05/11 04:20:15;;;;;;;9.02;4.55;;;14.70;99.90;;;;;;5111062;28;20051;-63
2022/05/11 04:22:41;;;;;;;10.27;4.35;;;14.60;99.90;;;;;;5111378;28;20040;-64
2022/05/11 04:25:07;;;;;;;9.57;4.30;;;14.60;99.90;;;;;;5111451;28;20517;-63
2022/05/11 04:27:34;;;;;;;6.78;4.15;;;14.60;99.90;;;;;;5110909;28;20067;-64
2022/05/11 04:30:01;;;;;;;10.60;4.25;;;14.60;99.90;;;;;;5110755;28;20088;-64
2022/05/11 04:32:27;;;;;;;8.32;4.18;;;14.60;99.90;;;;;;5109863;28;20643;-63
2022/05/11 04:34:53;;;;;;;8.70;4.25;;;14.60;99.90;;;;;;5110490;28;20092;-63
2022/05/11 04:37:18;;;;;;;9.88;3.88;;;14.60;99.90;;;;;;5111182;28;20811;-64
2022/05/11 04:39:44;;;;;;;10.95;4.82;;;14.60;99.90;;;;;;5109928;28;20035;-63
2022/05/11 04:42:11;;;;;;;8.75;4.75;;;14.60;99.90;;;;;;5111178;28;20515;-64
2022/05/11 04:44:36;;;;;;;10.95;4.50;;;14.60;99.90;;;;;;5110063;28;20127;-64
2022/05/11 04:47:13;;;;;;;11.43;4.32;;;14.60;99.90;;;;;;5110851;28;20122;-63
2022/05/11 04:49:40;;;;;;;8.95;4.40;;;14.60;99.90;;;;;;5110155;28;20088;-63
2022/05/11 04:52:11;;;;;;;11.27;4.60;;;14.60;99.90;;;;;;5111230;28;20088;-63
2022/05/11 04:54:39;;;;;;;9.18;4.28;;;14.60;99.90;;;;;;5109738;28;20122;-63
2022/05/11 04:57:06;;;;;;;10.45;4.38;;;14.60;99.90;;;;;;5110847;28;20129;-63
2022/05/11 04:59:32;;;;;;;13.00;5.15;;;14.60;99.90;;;;;;5109974;28;20377;-63
2022/05/11 05:01:59;;;;;;;8.65;4.80;;;14.60;99.90;;;;;;5110948;28;20113;-63
2022/05/11 05:04:26;;;;;;;13.65;5.18;;;14.60;99.90;;;;;;5110095;28;20047;-64
2022/05/11 05:06:51;;;;;;;12.48;5.40;;;14.60;99.90;;;;;;5111055;28;20040;-64
2022/05/11 05:09:17;;;;;;;14.40;5.80;;;14.70;99.90;;;;;;5110222;28;20040;-65
2022/05/11 05:11:42;;;;;;;13.68;6.40;;;14.60;99.90;;;;;;5110877;28;20381;-64
2022/05/11 05:14:08;;;;;;;13.10;6.53;;;14.70;99.90;;;;;;5110755;28;20035;-64
2022/05/11 05:16:34;;;;;;;15.38;6.95;;;14.70;99.90;;;;;;5109569;28;20097;-64
2022/05/11 05:19:00;;;;;;;14.05;7.88;;;14.70;99.90;;;;;;5110574;28;20085;-65
2022/05/11 05:21:25;;;;;;;16.95;8.25;;;14.70;99.90;;;;;;5110488;28;20035;-64
2022/05/11 05:23:51;;;;;;;14.20;8.75;;;14.70;99.90;;;;;;5109972;28;20036;-64
2022/05/11 05:26:17;;;;;;;18.67;9.10;;;14.80;99.90;;;;;;5110658;28;20040;-64
2022/05/11 05:31:29;;;;;;;16.15;8.95;;;14.90;99.90;;;;;;5114748;28;20039;-65
2022/05/11 05:33:59;;;;;;;17.05;9.60;;;14.90;99.90;;;;;;5114658;28;20057;-64
2022/05/11 05:36:29;;;;;;;18.38;9.70;;;15.00;99.90;;;;;;5114406;28;20039;-65
2022/05/11 05:38:57;;;;;;;19.80;9.48;;;15.00;99.90;;;;;;5112736;28;20090;-64
2022/05/11 05:41:25;;;;;;;16.20;8.60;;;15.00;99.90;;;;;;5113232;28;20495;-64
2022/05/11 05:43:51;;;;;;;14.23;7.75;;;15.10;99.90;;;;;;5113515;27;20512;-63
2022/05/11 05:46:17;;;;;;;13.77;8.65;;;15.10;99.90;;;;;;5113917;27;20475;-63
2022/05/11 05:48:43;;;;;;;15.20;6.75;;;15.20;99.90;;;;;;5113795;28;20040;-63
2022/05/11 05:51:11;;;;;;;12.68;7.20;;;15.20;99.90;;;;;;5114250;28;20065;-63
2022/05/11 05:53:37;;;;;;;14.65;6.68;;;15.20;99.90;;;;;;5114069;28;20048;-63
2022/05/11 05:56:03;;;;;;;11.05;6.00;;;15.30;99.90;;;;;;5113896;28;20044;-63
2022/05/11 05:58:29;;;;;;;11.80;5.85;;;15.30;99.90;;;;;;5113318;28;20127;-64
2022/05/11 06:00:55;;;;;;;14.13;5.70;;;15.30;99.90;;;;;;5113818;28;20071;-63
2022/05/11 06:03:26;;;;;;;12.02;5.28;;;15.30;99.90;;;;;;5112823;28;20075;-63
2022/05/11 06:05:52;;;;;;;14.13;6.05;;;15.30;99.90;;;;;;5113937;28;20039;-64
2022/05/11 06:08:19;;;;;;;10.40;5.80;;;15.30;99.90;;;;;;5113319;28;20038;-64
2022/05/11 06:10:45;;;;;;;11.23;7.15;;;15.40;99.90;;;;;;5113482;28;20491;-63
2022/05/11 06:13:16;;;;;;;17.92;7.82;;;15.40;99.90;;;;;;5114081;27;20054;-64
2022/05/11 06:15:43;;;;;;;12.07;7.72;;;15.50;99.90;;;;;;5113603;28;20573;-64
2022/05/11 06:18:12;;;;;;;14.13;8.98;;;15.50;99.90;;;;;;5113202;28;20048;-64
2022/05/11 06:20:38;;;;;;;16.48;8.07;;;15.50;99.90;;;;;;5112826;28;20043;-63
2022/05/11 06:23:05;;;;;;;14.20;8.27;;;15.60;99.90;;;;;;5112132;28;20036;-63
2022/05/11 06:25:32;;;;;;;15.43;7.68;;;15.60;99.90;;;;;;5113561;28;20035;-63
2022/05/11 06:27:58;;;;;;;12.77;6.75;;;15.60;99.90;;;;;;5112087;28;20037;-63
2022/05/11 06:30:25;;;;;;;14.00;6.68;;;15.60;99.90;;;;;;5083721;28;20119;-63
2022/05/11 06:32:51;;;;;;;11.38;6.40;;;15.70;99.90;;;;;;5082012;28;20037;-64
2022/05/11 06:35:17;;;;;;;14.00;6.13;;;15.80;99.90;;;;;;5082176;28;20040;-64
2022/05/11 06:37:42;;;;;;;13.80;5.32;;;15.80;99.90;;;;;;5071622;28;20535;-64
2022/05/11 06:40:10;;;;;;;8.35;4.63;;;16.00;99.90;;;;;;5070880;28;20115;-63
2022/05/11 06:42:35;;;;;;;8.40;4.70;;;16.10;99.90;;;;;;5072599;28;20071;-63
2022/05/11 06:45:01;;;;;;;12.38;4.78;;;16.20;99.90;;;;;;5072614;28;20471;-63
2022/05/11 06:47:27;;;;;;;9.48;4.10;;;16.30;99.90;;;;;;5072253;28;20048;-63
2022/05/11 06:49:52;;;;;;;11.75;4.28;;;16.40;99.90;;;;;;5071322;28;20051;-65
2022/05/11 06:52:18;;;;;;;10.18;3.83;;;16.50;99.90;;;;;;5071457;28;20029;-63
2022/05/11 07:00:13;;;;;;;9.63;3.15;;;16.90;99.90;;;;;;5071572;28;20036;-63
2022/05/11 07:02:39;;;;;;;7.72;2.92;;;17.00;99.90;;;;;;5071630;28;20055;-63
2022/05/11 07:05:08;;;;;;;9.63;2.83;;;17.00;99.90;;;;;;5071668;28;20123;-64
2022/05/11 07:07:34;;;;;;;5.05;2.67;;;17.00;99.90;;;;;;5071731;28;20051;-64
2022/05/11 07:10:00;;;;;;;10.38;2.92;;;17.20;99.90;;;;;;5071879;28;20048;-64
2022/05/11 07:12:32;;;;;;;8.13;2.40;;;17.40;99.90;;;;;;5072098;28;20401;-63
2022/05/11 07:14:59;;;;;;;13.20;2.70;;;17.40;99.90;;;;;;5072051;28;20036;-63
2022/05/11 07:17:40;;;;;;;8.63;2.47;;;17.30;99.90;;;;;;5071698;28;20048;-63
2022/05/11 07:20:11;;;;;;;6.10;2.38;;;17.40;99.90;;;;;;5071765;28;20055;-63
2022/05/11 07:22:41;;;;;;;10.32;2.15;;;17.50;99.90;;;;;;5070449;28;20069;-63
2022/05/11 07:25:09;;;;;;;4.93;2.03;;;17.60;99.90;;;;;;5071816;28;20140;-63
2022/05/11 07:27:34;;;;;;;7.85;2.03;;;17.70;99.90;;;;;;5071447;28;20131;-64
2022/05/11 07:30:01;;;;;;;5.18;1.92;;;17.90;99.90;;;;;;5071374;28;20115;-65
2022/05/11 07:32:27;;;;;;;4.75;2.28;;;18.00;99.90;;;;;;5070390;28;20663;-64
2022/05/11 07:34:53;;;;;;;6.05;1.58;;;18.10;99.90;;;;;;5071765;28;20115;-64
2022/05/11 07:37:18;;;;;;;12.80;2.30;;;18.30;99.90;;;;;;5071572;28;20124;-64
2022/05/11 07:39:44;;;;;;;7.15;1.77;;;18.30;99.90;;;;;;5071367;28;20074;-65
2022/05/11 07:42:10;;;;;;;7.20;1.70;;;18.30;99.90;;;;;;5071463;28;20402;-64
2022/05/11 07:44:36;;;;;;;8.98;1.75;;;18.30;99.90;;;;;;5071331;28;20409;-64
2022/05/11 07:47:02;;;;;;;8.20;1.90;;;18.50;99.90;;;;;;5071240;28;20044;-64
2022/05/11 07:49:27;;;;;;;6.88;1.98;;;18.50;99.90;;;;;;5071226;28;20510;-64
2022/05/11 07:51:53;;;;;;;12.00;1.92;;;18.50;99.90;;;;;;5072418;28;20119;-63
2022/05/11 07:54:20;;;;;;;6.70;1.52;;;18.30;99.90;;;;;;5087472;28;20036;-63
2022/05/11 08:02:16;;;;;;;8.85;1.92;;;18.20;99.90;;;;;;5091518;28;20467;-63
2022/05/11 08:04:41;;;;;;;6.05;1.42;;;18.20;99.90;;;;;;5091288;28;20028;-64
2022/05/11 08:07:08;;;;;;;4.50;1.50;;;18.20;99.90;;;;;;5091212;28;20036;-64
2022/05/11 08:09:34;;;;;;;6.07;1.55;;;18.10;99.90;;;;;;5090885;28;20044;-64
2022/05/11 08:12:00;;;;;;;10.50;1.40;;;18.20;99.90;;;;;;5091334;28;20077;-64
2022/05/11 08:14:26;;;;;;;6.43;1.55;;;18.10;99.90;;;;;;5091355;28;20058;-64
2022/05/11 08:16:52;;;;;;;4.93;1.40;;;18.30;99.90;;;;;;5091324;28;20032;-64
2022/05/11 08:19:26;;;;;;;6.68;1.60;;;18.50;99.90;;;;;;5090795;28;20120;-64
2022/05/11 08:21:52;;;;;;;8.85;1.25;;;18.60;99.90;;;;;;5090957;28;20035;-66
2022/05/11 08:24:19;;;;;;;6.13;1.63;;;18.70;99.90;;;;;;5091218;28;20040;-65
2022/05/11 08:26:51;;;;;;;10.75;1.45;;;18.80;99.90;;;;;;5091130;28;20075;-65
2022/05/11 08:34:46;;;;;;;4.85;1.33;;;18.70;99.90;;;;;;5091170;28;20051;-65
2022/05/11 08:37:13;;;;;;;4.55;1.35;;;18.80;99.90;;;;;;5090491;28;20040;-64
2022/05/11 08:39:38;;;;;;;8.02;1.40;;;18.80;99.90;;;;;;5082375;28;20044;-65
2022/05/11 08:42:04;;;;;;;7.13;1.80;;;18.80;99.90;;;;;;5069851;28;20045;-65
2022/05/11 08:44:34;;;;;;;3.72;1.42;;;18.80;99.90;;;;;;5068418;28;20060;-64
2022/05/11 08:47:22;;;;;;;6.45;1.50;;;18.90;99.90;;;;;;5069777;28;20048;-65
2022/05/11 08:49:55;;;;;;;6.88;1.65;;;19.00;99.90;;;;;;5069900;28;20040;-64
2022/05/11 08:52:55;;;;;;;6.75;1.95;;;19.10;99.90;;;;;;5070290;28;20142;-64
2022/05/11 08:55:39;;;;;;;9.93;1.58;;;19.30;99.60;;;;;;5070655;28;20401;-66
2022/05/11 08:58:10;;;;;;;9.20;1.70;;;19.20;99.80;;;;;;5069984;28;20059;-66
2022/05/11 09:00:39;;;;;;;6.18;1.58;;;19.10;99.60;;;;;;5068569;28;20040;-65
2022/05/11 09:03:31;;;;;;;8.63;1.48;;;19.20;99.50;;;;;;5070685;28;20048;-65
2022/05/11 09:05:58;;;;;;;7.78;1.55;;;19.20;99.90;;;;;;5074917;28;20086;-64
2022/05/11 09:08:24;;;;;;;8.07;1.50;;;19.30;99.10;;;;;;5074745;28;20107;-68
2022/05/11 09:10:49;;;;;;;3.28;1.23;;;19.30;98.90;;;;;;5074526;28;20508;-65
2022/05/11 09:13:16;;;;;;;9.00;2.05;;;19.40;99.40;;;;;;5074408;28;20045;-66
2022/05/11 09:15:55;;;;;;;4.07;1.23;;;19.50;98.90;;;;;;5074226;28;20045;-64
2022/05/11 09:18:39;;;;;;;12.13;1.92;;;19.60;98.10;;;;;;5074202;28;20055;-66
2022/05/11 09:21:24;;;;;;;9.43;1.60;;;19.70;99.10;;;;;;5072808;28;20048;-66
2022/05/11 09:24:28;;;;;;;6.57;1.33;;;19.80;98.00;;;;;;5074078;28;20129;-65
2022/05/11 09:27:04;;;;;;;8.38;1.70;;;19.70;97.10;;;;;;5069935;28;20079;-65
2022/05/11 09:29:40;;;;;;;12.63;1.73;;;19.90;98.00;;;;;;5073961;28;20064;-65
2022/05/11 09:32:20;;;;;;;3.53;1.02;;;19.80;97.50;;;;;;5072723;28;20045;-66
2022/05/11 09:34:46;;;;;;;7.80;1.10;;;19.90;96.40;;;;;;5074040;28;20499;-65
2022/05/11 09:37:35;;;;;;;7.15;1.50;;;19.90;96.30;;;;;;5073918;28;20040;-66
2022/05/11 09:40:21;;;;;;;5.05;1.10;;;19.80;94.00;;;;;;5073654;28;20036;-65
2022/05/11 09:42:55;;;;;;;8.40;1.60;;;19.90;94.70;;;;;;5073630;28;20041;-65
2022/05/11 09:45:34;;;;;;;5.45;1.75;;;19.90;94.50;;;;;;5073933;28;20028;-65
2022/05/11 09:48:03;;;;;;;6.40;1.30;;;20.00;94.40;;;;;;5073788;28;20044;-65
2022/05/11 09:50:28;;;;;;;6.05;1.55;;;20.00;94.50;;;;;;5073143;28;20515;-65
2022/05/11 09:53:07;;;;;;;4.75;0.93;;;19.90;95.00;;;;;;5072972;28;20044;-66
2022/05/11 09:55:33;;;;;;;3.63;1.10;;;20.00;92.30;;;;;;5073615;28;20036;-65
2022/05/11 09:58:02;;;;;;;9.60;1.30;;;20.10;92.00;;;;;;5073283;28;20075;-65
2022/05/11 10:00:35;;;;;;;5.30;1.02;;;20.00;92.00;;;;;;5073102;28;20521;-66
2022/05/11 10:03:06;;;;;;;6.97;1.20;;;20.10;92.60;;;;;;5073424;28;20094;-65
2022/05/11 10:05:36;;;;;;;8.38;1.27;;;20.20;93.00;;;;;;5073453;28;20040;-65
2022/05/11 10:08:02;;;;;;;5.05;1.40;;;20.20;91.80;;;;;;5073164;28;20707;-65
2022/05/11 10:10:39;;;;;;;7.60;1.15;;;20.30;92.60;;;;;;5073005;28;20119;-65
2022/05/11 10:13:31;;;;;;;8.25;1.05;;;20.30;88.80;;;;;;5073459;28;20102;-66
2022/05/11 10:21:56;;;;;;;5.45;1.05;;;20.10;88.20;;;;;;5073209;28;20052;-65
2022/05/11 10:24:58;;;;;;;4.07;1.13;;;20.20;86.70;;;;;;5073022;28;20405;-65
2022/05/11 10:27:46;;;;;;;7.63;1.30;;;20.30;85.70;;;;;;5073020;28;20041;-65
2022/05/11 10:30:50;;;;;;;6.18;0.95;;;20.30;86.70;;;;;;5072786;28;20045;-65
2022/05/11 10:33:37;;;;;;;4.25;0.90;;;20.40;81.50;;;;;;5072699;28;20405;-66
2022/05/11 10:36:44;;;;;;;6.70;1.30;;;20.50;84.90;;;;;;5073078;28;20623;-64
2022/05/11 10:40:09;;;;;;;6.82;1.30;;;20.60;80.60;;;;;;5016668;28;20468;-67
2022/05/11 10:42:40;;;;;;;5.60;1.92;;;20.70;84.40;;;;;;4990989;28;20049;-67
2022/05/11 10:45:16;;;;;;;6.55;0.88;;;20.80;83.00;;;;;;4975083;28;20050;-68
2022/05/11 10:47:44;;;;;;;5.38;1.10;;;20.90;84.30;;;;;;4990796;28;20552;-67
2022/05/11 10:50:52;;;;;;;4.95;1.38;;;20.90;78.10;;;;;;4990692;28;20071;-67
2022/05/11 10:53:42;;;;;;;3.85;1.20;;;20.90;80.10;;;;;;4951834;29;20118;-70
2022/05/11 10:56:26;;;;;;;5.57;1.17;;;21.00;78.60;;;;;;4900480;29;20091;-69
2022/05/11 10:59:16;;;;;;;6.18;1.15;;;21.10;78.00;;;;;;4935364;29;20051;-68
2022/05/11 11:01:47;;;;;;;8.20;1.40;;;21.10;73.60;;;;;;4951756;29;20589;-70
2022/05/11 11:04:31;;;;;;;4.30;1.20;;;21.20;77.60;;;;;;4951720;29;20095;-69
2022/05/11 11:07:38;;;;;;;4.13;1.02;;;21.20;79.00;;;;;;4951701;29;20064;-69
2022/05/11 11:10:22;;;;;;;6.95;1.30;;;21.20;78.50;;;;;;4875623;29;20471;-69
2022/05/11 11:13:01;;;;;;;7.13;1.10;;;21.30;73.90;;;;;;4886034;29;20082;-69
2022/05/11 11:15:32;;;;;;;2.20;0.85;;;21.30;74.80;;;;;;4897614;29;20076;-68
2022/05/11 11:17:59;;;;;;;3.75;1.30;;;21.40;77.50;;;;;;4913459;29;20044;-69
2022/05/11 11:20:26;;;;;;;5.32;1.17;;;21.40;79.20;;;;;;4912924;29;20421;-69
2022/05/11 11:23:04;;;;;;;5.22;1.08;;;21.40;77.70;;;;;;4921701;29;20044;-69
2022/05/11 11:25:53;;;;;;;5.95;1.38;;;21.50;75.80;;;;;;4913444;29;20075;-69
2022/05/11 11:28:30;;;;;;;7.47;1.50;;;21.50;71.30;;;;;;4967191;28;20102;-70
2022/05/11 11:30:59;;;;;;;9.10;1.30;;;21.50;71.30;;;;;;4954672;28;20053;-69
2022/05/11 11:33:28;;;;;;;2.65;1.52;;;21.60;77.80;;;;;;4954515;28;20085;-69
2022/05/11 11:36:05;;;;;;;6.90;1.27;;;21.60;76.70;;;;;;4970692;28;20595;-68
2022/05/11 11:38:36;;;;;;;5.70;1.40;;;21.70;72.30;;;;;;4954013;28;20137;-70
2022/05/11 11:41:18;;;;;;;10.43;1.25;;;21.70;74.00;;;;;;4954406;28;20100;-69
2022/05/11 11:43:54;;;;;;;4.47;1.17;;;21.80;76.40;;;;;;4954285;28;20426;-69
2022/05/11 11:46:33;;;;;;;5.35;1.20;;;21.70;73.00;;;;;;5023553;28;20361;-69
2022/05/11 11:49:09;;;;;;;3.45;1.13;;;21.70;79.50;;;;;;5069889;28;20521;-68
2022/05/11 11:51:56;;;;;;;3.05;1.00;;;21.70;76.90;;;;;;5071439;28;20059;-70
2022/05/11 11:54:37;;;;;;;4.05;1.10;;;21.70;76.70;;;;;;5070237;28;20443;-69
2022/05/11 11:57:20;;;;;;;5.45;1.10;;;21.80;74.80;;;;;;5071261;28;20032;-69
2022/05/11 11:59:54;;;;;;;7.65;1.15;;;21.80;79.10;;;;;;5070773;28;20505;-69
2022/05/11 12:02:35;;;;;;;10.35;1.20;;;21.90;76.00;;;;;;5070119;28;20048;-69
2022/05/11 12:05:07;;;;;;;4.22;1.20;;;21.80;74.50;;;;;;5071464;28;20440;-70
2022/05/11 12:16:04;;;;;;;6.43;0.98;;;22.00;78.60;;;;;;5071137;28;20048;-68
2022/05/11 12:18:35;;;;;;;6.70;1.40;;;22.10;80.00;;;;;;5069225;28;20048;-69
2022/05/11 12:21:05;;;;;;;5.40;1.30;;;22.00;80.50;;;;;;5069765;28;20040;-69
2022/05/11 12:23:37;;;;;;;12.00;1.40;;;22.10;80.60;;;;;;5070827;28;20194;-69
2022/05/11 12:26:09;;;;;;;3.70;1.20;;;22.10;74.70;;;;;;5071200;28;20037;-69
2022/05/11 12:28:38;;;;;;;3.92;1.30;;;22.20;74.80;;;;;;5070487;28;20194;-69
2022/05/11 12:31:05;;;;;;;3.30;0.98;;;22.30;73.50;;;;;;5070840;28;20068;-69
2022/05/11 12:33:34;;;;;;;9.90;1.10;;;22.30;71.20;;;;;;5069602;28;20047;-69
2022/05/11 12:36:00;;;;;;;6.45;1.40;;;22.30;72.20;;;;;;5069515;28;20048;-69
2022/05/11 12:38:28;;;;;;;7.50;1.80;;;22.30;70.70;;;;;;5068379;28;20052;-70
2022/05/11 12:40:55;;;;;;;5.00;1.10;;;22.40;71.70;;;;;;5070892;28;20056;-68
2022/05/11 12:43:28;;;;;;;5.97;1.00;;;22.30;72.00;;;;;;5070721;28;20119;-69
2022/05/11 12:46:06;;;;;;;4.90;1.10;;;22.40;72.20;;;;;;5070762;28;20041;-69
2022/05/11 12:48:42;;;;;;;12.55;1.70;;;22.50;69.80;;;;;;5069021;28;20125;-69
2022/05/11 12:51:23;;;;;;;10.20;0.88;;;22.40;69.70;;;;;;5071046;28;20035;-69
2022/05/11 12:53:56;;;;;;;7.82;1.35;;;22.40;71.20;;;;;;5068991;28;20084;-69
2022/05/11 12:56:31;;;;;;;13.32;1.45;;;22.50;71.70;;;;;;5090359;28;20041;-69
2022/05/11 12:59:06;;;;;;;4.55;1.30;;;22.50;67.00;;;;;;5089268;28;20488;-70
2022/05/11 13:01:33;;;;;;;5.57;1.38;;;22.50;66.70;;;;;;5090809;28;20126;-66
2022/05/11 13:04:16;;;;;;;8.30;1.38;;;22.30;65.10;;;;;;5090660;28;20810;-66
2022/05/11 13:06:46;;;;;;;6.60;1.25;;;22.20;62.40;;;;;;5090958;28;20040;-66
2022/05/11 13:09:19;;;;;;;5.07;1.48;;;22.20;65.30;;;;;;5090352;28;20489;-66
2022/05/11 13:11:47;;;;;;;10.07;1.35;;;22.30;62.90;;;;;;5090763;28;20047;-66
2022/05/11 13:14:20;;;;;;;8.00;1.40;;;22.30;64.00;;;;;;5090645;28;20032;-66
2022/05/11 13:16:54;;;;;;;6.82;1.30;;;22.40;63.70;;;;;;5090513;28;20043;-66
2022/05/11 13:19:38;;;;;;;21.95;2.30;;;22.30;63.00;;;;;;5090496;28;20036;-66
2022/05/11 13:22:12;;;;;;;6.93;1.75;;;22.20;63.90;;;;;;5090720;28;20080;-66
2022/05/11 13:24:48;;;;;;;11.00;1.38;;;22.20;63.80;;;;;;5090533;28;20381;-66
2022/05/11 13:27:32;;;;;;;8.20;1.63;;;22.20;65.50;;;;;;5090731;28;20085;-66
2022/05/11 13:30:12;;;;;;;5.03;1.30;;;22.30;68.90;;;;;;5090210;28;20488;-66
2022/05/11 13:32:57;;;;;;;7.05;1.50;;;22.30;70.10;;;;;;5090495;28;20519;-66
2022/05/11 13:35:38;;;;;;;9.18;1.85;;;22.30;71.30;;;;;;5090433;28;20459;-66
2022/05/11 13:38:09;;;;;;;6.70;1.48;;;22.40;72.10;;;;;;5090479;28;20040;-67
2022/05/11 13:40:38;;;;;;;11.20;1.77;;;22.20;67.20;;;;;;5090306;28;20042;-66